sensor_id;sensor_type;location;lat;lon;timestamp;P1;durP1;ratioP1;P2;durP2;ratioP2
3083;SDS011;1552;51.952;7.618;2023-10-08T00:00:44;8.52;;;4.53;;
3083;SDS011;1552;51.952;7.618;2023-10-08T00:03:12;9.95;;;3.90;;
3083;SDS011;1552;51.952;7.618;2023-10-08T00:05:39;8.05;;;3.90;;
3083;SDS011;1552;51.952;7.618;2023-10-08T00:08:06;10.88;;;3.33;;
3083;SDS011;1552;51.952;7.618;2023-10-08T00:10:34;8.15;;;4.22;;
3083;SDS011;1552;51.952;7.618;2023-10-08T00:13:00;15.82;;;5.30;;
3083;SDS011;1552;51.952;7.618;2023-10-08T00:15:27;9.68;;;3.95;;
3083;SDS011;1552;51.952;7.618;2023-10-08T00:17:54;13.70;;;4.63;;
3083;SDS011;1552;51.952;7.618;2023-10-08T00:20:23;10.88;;;4.25;;
3083;SDS011;1552;51.952;7.618;2023-10-08T00:22:53;7.28;;;4.47;;
3083;SDS011;1552;51.952;7.618;2023-10-08T00:25:20;8.27;;;4.60;;
3083;SDS011;1552;51.952;7.618;2023-10-08T00:27:47;10.65;;;4.07;;
3083;SDS011;1552;51.952;7.618;2023-10-08T00:30:16;15.50;;;4.88;;
3083;SDS011;1552;51.952;7.618;2023-10-08T00:32:43;9.18;;;4.28;;
3083;SDS011;1552;51.952;7.618;2023-10-08T00:35:11;8.68;;;4.00;;
3083;SDS011;1552;51.952;7.618;2023-10-08T00:37:38;11.50;;;4.97;;
3083;SDS011;1552;51.952;7.618;2023-10-08T00:40:06;9.90;;;4.55;;
3083;SDS011;1552;51.952;7.618;2023-10-08T00:42:46;7.93;;;4.00;;
3083;SDS011;1552;51.952;7.618;2023-10-08T00:45:13;8.60;;;4.53;;
3083;SDS011;1552;51.952;7.618;2023-10-08T00:47:39;8.30;;;3.92;;
3083;SDS011;1552;51.952;7.618;2023-10-08T00:50:08;11.88;;;3.85;;
3083;SDS011;1552;51.952;7.618;2023-10-08T00:52:37;10.38;;;4.30;;
3083;SDS011;1552;51.952;7.618;2023-10-08T00:55:08;14.23;;;4.20;;
3083;SDS011;1552;51.952;7.618;2023-10-08T00:57:54;9.98;;;4.15;;
3083;SDS011;1552;51.952;7.618;2023-10-08T01:00:22;13.23;;;4.90;;
3083;SDS011;1552;51.952;7.618;2023-10-08T01:02:57;10.48;;;4.07;;
3083;SDS011;1552;51.952;7.618;2023-10-08T01:05:26;8.88;;;4.00;;
3083;SDS011;1552;51.952;7.618;2023-10-08T01:08:08;8.13;;;4.07;;
3083;SDS011;1552;51.952;7.618;2023-10-08T01:10:37;6.93;;;4.13;;
3083;SDS011;1552;51.952;7.618;2023-10-08T01:13:05;11.75;;;4.60;;
3083;SDS011;1552;51.952;7.618;2023-10-08T01:15:37;10.20;;;4.03;;
3083;SDS011;1552;51.952;7.618;2023-10-08T01:18:06;9.57;;;4.47;;
3083;SDS011;1552;51.952;7.618;2023-10-08T01:20:40;17.05;;;5.55;;
3083;SDS011;1552;51.952;7.618;2023-10-08T01:23:18;10.98;;;4.53;;
3083;SDS011;1552;51.952;7.618;2023-10-08T01:25:48;13.60;;;4.38;;
3083;SDS011;1552;51.952;7.618;2023-10-08T01:28:16;13.30;;;4.72;;
3083;SDS011;1552;51.952;7.618;2023-10-08T01:30:50;10.77;;;5.22;;
3083;SDS011;1552;51.952;7.618;2023-10-08T01:33:19;16.25;;;4.68;;
3083;SDS011;1552;51.952;7.618;2023-10-08T01:35:53;15.85;;;5.75;;
3083;SDS011;1552;51.952;7.618;2023-10-08T01:38:21;10.43;;;4.10;;
3083;SDS011;1552;51.952;7.618;2023-10-08T01:40:48;15.95;;;5.68;;
3083;SDS011;1552;51.952;7.618;2023-10-08T01:43:16;15.13;;;6.10;;
3083;SDS011;1552;51.952;7.618;2023-10-08T01:45:43;19.52;;;5.68;;
3083;SDS011;1552;51.952;7.618;2023-10-08T01:48:13;13.63;;;5.15;;
3083;SDS011;1552;51.952;7.618;2023-10-08T01:50:40;17.50;;;6.70;;
3083;SDS011;1552;51.952;7.618;2023-10-08T01:53:10;11.60;;;4.63;;
3083;SDS011;1552;51.952;7.618;2023-10-08T01:55:38;18.35;;;6.78;;
3083;SDS011;1552;51.952;7.618;2023-10-08T01:58:15;14.25;;;6.47;;
3083;SDS011;1552;51.952;7.618;2023-10-08T02:00:42;13.10;;;5.85;;
3083;SDS011;1552;51.952;7.618;2023-10-08T02:03:10;7.80;;;4.90;;
3083;SDS011;1552;51.952;7.618;2023-10-08T02:05:37;17.58;;;6.57;;
3083;SDS011;1552;51.952;7.618;2023-10-08T02:08:07;12.85;;;5.18;;
3083;SDS011;1552;51.952;7.618;2023-10-08T02:10:33;11.95;;;5.88;;
3083;SDS011;1552;51.952;7.618;2023-10-08T02:13:01;13.30;;;7.22;;
3083;SDS011;1552;51.952;7.618;2023-10-08T02:15:28;17.33;;;6.35;;
3083;SDS011;1552;51.952;7.618;2023-10-08T02:17:54;12.38;;;5.80;;
3083;SDS011;1552;51.952;7.618;2023-10-08T02:20:22;11.38;;;5.88;;
3083;SDS011;1552;51.952;7.618;2023-10-08T02:22:48;18.73;;;7.13;;
3083;SDS011;1552;51.952;7.618;2023-10-08T02:25:15;16.83;;;7.07;;
3083;SDS011;1552;51.952;7.618;2023-10-08T02:27:41;17.00;;;6.65;;
3083;SDS011;1552;51.952;7.618;2023-10-08T02:30:09;8.25;;;5.35;;
3083;SDS011;1552;51.952;7.618;2023-10-08T02:32:37;12.90;;;6.38;;
3083;SDS011;1552;51.952;7.618;2023-10-08T02:35:07;24.10;;;6.63;;
3083;SDS011;1552;51.952;7.618;2023-10-08T02:37:36;15.32;;;6.80;;
3083;SDS011;1552;51.952;7.618;2023-10-08T02:40:05;12.02;;;4.57;;
3083;SDS011;1552;51.952;7.618;2023-10-08T02:42:39;7.35;;;2.63;;
3083;SDS011;1552;51.952;7.618;2023-10-08T02:45:07;5.53;;;2.63;;
3083;SDS011;1552;51.952;7.618;2023-10-08T02:47:39;3.97;;;1.90;;
3083;SDS011;1552;51.952;7.618;2023-10-08T02:50:06;3.00;;;1.48;;
3083;SDS011;1552;51.952;7.618;2023-10-08T02:52:33;2.40;;;1.42;;
3083;SDS011;1552;51.952;7.618;2023-10-08T02:55:00;1.55;;;1.20;;
3083;SDS011;1552;51.952;7.618;2023-10-08T02:57:26;3.22;;;1.13;;
3083;SDS011;1552;51.952;7.618;2023-10-08T02:59:54;2.33;;;0.52;;
3083;SDS011;1552;51.952;7.618;2023-10-08T03:02:21;0.75;;;0.75;;
3083;SDS011;1552;51.952;7.618;2023-10-08T03:04:49;0.70;;;0.30;;
3083;SDS011;1552;51.952;7.618;2023-10-08T03:07:17;0.60;;;0.60;;
3083;SDS011;1552;51.952;7.618;2023-10-08T03:09:47;2.00;;;0.40;;
3083;SDS011;1552;51.952;7.618;2023-10-08T03:12:15;0.40;;;0.40;;
3083;SDS011;1552;51.952;7.618;2023-10-08T03:14:42;0.30;;;0.30;;
3083;SDS011;1552;51.952;7.618;2023-10-08T03:17:15;0.63;;;0.57;;
3083;SDS011;1552;51.952;7.618;2023-10-08T03:19:45;0.50;;;0.50;;
3083;SDS011;1552;51.952;7.618;2023-10-08T03:22:13;0.40;;;0.40;;
3083;SDS011;1552;51.952;7.618;2023-10-08T03:24:44;0.55;;;0.52;;
3083;SDS011;1552;51.952;7.618;2023-10-08T03:27:13;1.02;;;1.00;;
3083;SDS011;1552;51.952;7.618;2023-10-08T03:29:45;0.50;;;0.50;;
3083;SDS011;1552;51.952;7.618;2023-10-08T03:32:12;0.65;;;0.65;;
3083;SDS011;1552;51.952;7.618;2023-10-08T03:34:45;0.98;;;0.80;;
3083;SDS011;1552;51.952;7.618;2023-10-08T03:37:14;0.63;;;0.63;;
3083;SDS011;1552;51.952;7.618;2023-10-08T03:39:46;0.85;;;0.85;;
3083;SDS011;1552;51.952;7.618;2023-10-08T03:42:25;1.95;;;0.88;;
3083;SDS011;1552;51.952;7.618;2023-10-08T03:44:55;0.85;;;0.85;;
3083;SDS011;1552;51.952;7.618;2023-10-08T03:47:22;1.40;;;1.23;;
3083;SDS011;1552;51.952;7.618;2023-10-08T03:49:51;1.00;;;0.90;;
3083;SDS011;1552;51.952;7.618;2023-10-08T03:52:20;0.70;;;0.70;;
3083;SDS011;1552;51.952;7.618;2023-10-08T03:54:48;1.50;;;1.40;;
3083;SDS011;1552;51.952;7.618;2023-10-08T03:57:28;1.53;;;1.43;;
3083;SDS011;1552;51.952;7.618;2023-10-08T04:00:06;1.93;;;0.90;;
3083;SDS011;1552;51.952;7.618;2023-10-08T04:02:37;1.20;;;0.90;;
3083;SDS011;1552;51.952;7.618;2023-10-08T04:05:06;0.67;;;0.67;;
3083;SDS011;1552;51.952;7.618;2023-10-08T04:07:45;1.93;;;0.87;;
3083;SDS011;1552;51.952;7.618;2023-10-08T04:10:26;0.47;;;0.47;;
3083;SDS011;1552;51.952;7.618;2023-10-08T04:13:25;1.13;;;0.60;;
3083;SDS011;1552;51.952;7.618;2023-10-08T04:15:50;0.60;;;0.60;;
3083;SDS011;1552;51.952;7.618;2023-10-08T04:18:17;0.40;;;0.40;;
3083;SDS011;1552;51.952;7.618;2023-10-08T04:20:45;0.83;;;0.47;;
3083;SDS011;1552;51.952;7.618;2023-10-08T04:23:26;0.93;;;0.50;;
3083;SDS011;1552;51.952;7.618;2023-10-08T04:25:54;0.23;;;0.23;;
3083;SDS011;1552;51.952;7.618;2023-10-08T04:28:21;0.70;;;0.70;;
3083;SDS011;1552;51.952;7.618;2023-10-08T04:30:47;0.70;;;0.60;;
3083;SDS011;1552;51.952;7.618;2023-10-08T04:33:16;3.03;;;0.80;;
3083;SDS011;1552;51.952;7.618;2023-10-08T04:35:44;0.87;;;0.70;;
3083;SDS011;1552;51.952;7.618;2023-10-08T04:38:17;0.50;;;0.40;;
3083;SDS011;1552;51.952;7.618;2023-10-08T04:40:45;0.60;;;0.60;;
3083;SDS011;1552;51.952;7.618;2023-10-08T04:43:14;1.30;;;0.80;;
3083;SDS011;1552;51.952;7.618;2023-10-08T04:45:44;0.70;;;0.60;;
3083;SDS011;1552;51.952;7.618;2023-10-08T04:48:11;0.70;;;0.60;;
3083;SDS011;1552;51.952;7.618;2023-10-08T04:50:44;0.70;;;0.70;;
3083;SDS011;1552;51.952;7.618;2023-10-08T04:53:10;0.90;;;0.90;;
3083;SDS011;1552;51.952;7.618;2023-10-08T04:55:41;0.80;;;0.80;;
3083;SDS011;1552;51.952;7.618;2023-10-08T04:58:14;1.47;;;1.23;;
3083;SDS011;1552;51.952;7.618;2023-10-08T05:00:46;0.73;;;0.60;;
3083;SDS011;1552;51.952;7.618;2023-10-08T05:03:19;1.52;;;1.00;;
3083;SDS011;1552;51.952;7.618;2023-10-08T05:05:47;7.43;;;1.23;;
3083;SDS011;1552;51.952;7.618;2023-10-08T05:08:32;1.00;;;0.60;;
3083;SDS011;1552;51.952;7.618;2023-10-08T05:11:03;0.73;;;0.70;;
3083;SDS011;1552;51.952;7.618;2023-10-08T05:13:51;1.00;;;0.87;;
3083;SDS011;1552;51.952;7.618;2023-10-08T05:16:30;1.17;;;1.03;;
3083;SDS011;1552;51.952;7.618;2023-10-08T05:19:08;1.00;;;0.90;;
3083;SDS011;1552;51.952;7.618;2023-10-08T05:22:02;0.90;;;0.80;;
3083;SDS011;1552;51.952;7.618;2023-10-08T05:24:43;1.50;;;1.13;;
3083;SDS011;1552;51.952;7.618;2023-10-08T05:27:16;2.53;;;1.10;;
3083;SDS011;1552;51.952;7.618;2023-10-08T05:30:04;1.20;;;1.10;;
3083;SDS011;1552;51.952;7.618;2023-10-08T05:32:40;1.00;;;0.70;;
3083;SDS011;1552;51.952;7.618;2023-10-08T05:35:31;1.97;;;1.20;;
3083;SDS011;1552;51.952;7.618;2023-10-08T05:38:14;2.13;;;1.20;;
3083;SDS011;1552;51.952;7.618;2023-10-08T05:40:47;1.30;;;1.17;;
3083;SDS011;1552;51.952;7.618;2023-10-08T05:43:42;1.97;;;1.13;;
3083;SDS011;1552;51.952;7.618;2023-10-08T05:46:27;1.27;;;1.13;;
3083;SDS011;1552;51.952;7.618;2023-10-08T05:49:12;0.70;;;0.70;;
3083;SDS011;1552;51.952;7.618;2023-10-08T05:51:52;0.70;;;0.70;;
3083;SDS011;1552;51.952;7.618;2023-10-08T05:54:36;1.67;;;0.87;;
3083;SDS011;1552;51.952;7.618;2023-10-08T05:57:12;0.90;;;0.80;;
3083;SDS011;1552;51.952;7.618;2023-10-08T05:59:50;0.50;;;0.50;;
3083;SDS011;1552;51.952;7.618;2023-10-08T06:02:40;0.67;;;0.50;;
3083;SDS011;1552;51.952;7.618;2023-10-08T06:05:25;1.27;;;0.40;;
3083;SDS011;1552;51.952;7.618;2023-10-08T06:07:58;0.53;;;0.50;;
3083;SDS011;1552;51.952;7.618;2023-10-08T06:10:36;0.70;;;0.57;;
3083;SDS011;1552;51.952;7.618;2023-10-08T06:13:09;0.53;;;0.50;;
3083;SDS011;1552;51.952;7.618;2023-10-08T06:15:38;0.50;;;0.50;;
3083;SDS011;1552;51.952;7.618;2023-10-08T06:18:11;1.00;;;0.60;;
3083;SDS011;1552;51.952;7.618;2023-10-08T06:20:38;1.53;;;1.27;;
3083;SDS011;1552;51.952;7.618;2023-10-08T06:23:08;0.77;;;0.77;;
3083;SDS011;1552;51.952;7.618;2023-10-08T06:25:34;0.77;;;0.70;;
3083;SDS011;1552;51.952;7.618;2023-10-08T06:28:09;1.53;;;0.63;;
3083;SDS011;1552;51.952;7.618;2023-10-08T06:30:36;0.97;;;0.60;;
3083;SDS011;1552;51.952;7.618;2023-10-08T06:33:05;0.40;;;0.40;;
3083;SDS011;1552;51.952;7.618;2023-10-08T06:35:33;0.70;;;0.70;;
3083;SDS011;1552;51.952;7.618;2023-10-08T06:38:01;2.00;;;1.20;;
3083;SDS011;1552;51.952;7.618;2023-10-08T06:40:32;1.80;;;1.00;;
3083;SDS011;1552;51.952;7.618;2023-10-08T06:43:08;1.03;;;0.93;;
3083;SDS011;1552;51.952;7.618;2023-10-08T06:45:43;1.23;;;1.13;;
3083;SDS011;1552;51.952;7.618;2023-10-08T06:48:12;1.63;;;1.10;;
3083;SDS011;1552;51.952;7.618;2023-10-08T06:50:45;0.93;;;0.90;;
3083;SDS011;1552;51.952;7.618;2023-10-08T06:53:11;0.87;;;0.87;;
3083;SDS011;1552;51.952;7.618;2023-10-08T06:55:39;4.43;;;1.07;;
3083;SDS011;1552;51.952;7.618;2023-10-08T06:58:05;1.33;;;0.97;;
3083;SDS011;1552;51.952;7.618;2023-10-08T07:00:33;1.90;;;1.10;;
3083;SDS011;1552;51.952;7.618;2023-10-08T07:03:05;1.13;;;1.03;;
3083;SDS011;1552;51.952;7.618;2023-10-08T07:05:32;1.23;;;1.13;;
3083;SDS011;1552;51.952;7.618;2023-10-08T07:08:02;3.87;;;1.60;;
3083;SDS011;1552;51.952;7.618;2023-10-08T07:10:31;2.73;;;1.50;;
3083;SDS011;1552;51.952;7.618;2023-10-08T07:12:59;0.73;;;0.73;;
3083;SDS011;1552;51.952;7.618;2023-10-08T07:15:27;2.47;;;1.33;;
3083;SDS011;1552;51.952;7.618;2023-10-08T07:17:55;1.77;;;1.23;;
3083;SDS011;1552;51.952;7.618;2023-10-08T07:20:21;2.27;;;1.10;;
3083;SDS011;1552;51.952;7.618;2023-10-08T07:22:47;1.97;;;1.20;;
3083;SDS011;1552;51.952;7.618;2023-10-08T07:25:20;2.63;;;0.97;;
3083;SDS011;1552;51.952;7.618;2023-10-08T07:27:47;6.23;;;2.20;;
3083;SDS011;1552;51.952;7.618;2023-10-08T07:30:14;1.77;;;1.40;;
3083;SDS011;1552;51.952;7.618;2023-10-08T07:32:51;3.40;;;1.70;;
3083;SDS011;1552;51.952;7.618;2023-10-08T07:35:19;2.60;;;1.57;;
3083;SDS011;1552;51.952;7.618;2023-10-08T07:37:50;3.70;;;1.67;;
3083;SDS011;1552;51.952;7.618;2023-10-08T07:40:18;3.43;;;2.23;;
3083;SDS011;1552;51.952;7.618;2023-10-08T07:42:47;4.77;;;2.23;;
3083;SDS011;1552;51.952;7.618;2023-10-08T07:45:16;6.60;;;2.40;;
3083;SDS011;1552;51.952;7.618;2023-10-08T07:47:43;1.97;;;1.77;;
3083;SDS011;1552;51.952;7.618;2023-10-08T07:50:09;3.80;;;1.87;;
3083;SDS011;1552;51.952;7.618;2023-10-08T07:52:37;3.37;;;1.93;;
3083;SDS011;1552;51.952;7.618;2023-10-08T07:55:07;5.63;;;1.80;;
3083;SDS011;1552;51.952;7.618;2023-10-08T07:57:34;2.93;;;1.67;;
3083;SDS011;1552;51.952;7.618;2023-10-08T08:00:01;2.27;;;1.53;;
3083;SDS011;1552;51.952;7.618;2023-10-08T08:02:43;4.57;;;1.93;;
3083;SDS011;1552;51.952;7.618;2023-10-08T08:05:09;2.27;;;1.50;;
3083;SDS011;1552;51.952;7.618;2023-10-08T08:07:40;2.53;;;1.30;;
3083;SDS011;1552;51.952;7.618;2023-10-08T08:10:08;2.37;;;1.10;;
3083;SDS011;1552;51.952;7.618;2023-10-08T08:12:36;0.67;;;0.67;;
3083;SDS011;1552;51.952;7.618;2023-10-08T08:15:04;2.00;;;1.07;;
3083;SDS011;1552;51.952;7.618;2023-10-08T08:17:39;4.07;;;1.63;;
3083;SDS011;1552;51.952;7.618;2023-10-08T08:20:06;1.20;;;1.00;;
3083;SDS011;1552;51.952;7.618;2023-10-08T08:22:42;3.43;;;0.80;;
3083;SDS011;1552;51.952;7.618;2023-10-08T08:25:14;1.17;;;1.07;;
3083;SDS011;1552;51.952;7.618;2023-10-08T08:27:41;1.00;;;0.90;;
3083;SDS011;1552;51.952;7.618;2023-10-08T08:30:10;1.93;;;0.90;;
3083;SDS011;1552;51.952;7.618;2023-10-08T08:32:41;2.13;;;1.33;;
3083;SDS011;1552;51.952;7.618;2023-10-08T08:35:08;2.87;;;1.40;;
3083;SDS011;1552;51.952;7.618;2023-10-08T08:37:35;2.07;;;1.40;;
3083;SDS011;1552;51.952;7.618;2023-10-08T08:40:03;1.83;;;1.23;;
3083;SDS011;1552;51.952;7.618;2023-10-08T08:42:33;5.60;;;1.57;;
3083;SDS011;1552;51.952;7.618;2023-10-08T08:45:00;3.47;;;1.40;;
3083;SDS011;1552;51.952;7.618;2023-10-08T08:47:29;3.20;;;1.03;;
3083;SDS011;1552;51.952;7.618;2023-10-08T08:49:56;3.77;;;1.77;;
3083;SDS011;1552;51.952;7.618;2023-10-08T08:52:25;2.00;;;1.70;;
3083;SDS011;1552;51.952;7.618;2023-10-08T08:54:51;4.43;;;1.50;;
3083;SDS011;1552;51.952;7.618;2023-10-08T08:57:18;2.60;;;1.20;;
3083;SDS011;1552;51.952;7.618;2023-10-08T08:59:48;1.70;;;1.42;;
3083;SDS011;1552;51.952;7.618;2023-10-08T09:02:16;2.28;;;1.17;;
3083;SDS011;1552;51.952;7.618;2023-10-08T09:04:45;2.33;;;1.03;;
3083;SDS011;1552;51.952;7.618;2023-10-08T09:07:13;2.50;;;1.45;;
3083;SDS011;1552;51.952;7.618;2023-10-08T09:09:39;1.83;;;1.03;;
3083;SDS011;1552;51.952;7.618;2023-10-08T09:12:06;2.73;;;1.33;;
3083;SDS011;1552;51.952;7.618;2023-10-08T09:14:35;1.90;;;1.20;;
3083;SDS011;1552;51.952;7.618;2023-10-08T09:17:03;3.30;;;1.83;;
3083;SDS011;1552;51.952;7.618;2023-10-08T09:19:31;3.40;;;1.37;;
3083;SDS011;1552;51.952;7.618;2023-10-08T09:22:04;2.23;;;1.07;;
3083;SDS011;1552;51.952;7.618;2023-10-08T09:24:31;1.70;;;1.33;;
3083;SDS011;1552;51.952;7.618;2023-10-08T09:26:58;2.50;;;1.00;;
3083;SDS011;1552;51.952;7.618;2023-10-08T09:29:24;2.30;;;1.00;;
3083;SDS011;1552;51.952;7.618;2023-10-08T09:31:52;1.47;;;1.20;;
3083;SDS011;1552;51.952;7.618;2023-10-08T09:34:20;1.90;;;1.20;;
3083;SDS011;1552;51.952;7.618;2023-10-08T09:36:47;4.17;;;1.30;;
3083;SDS011;1552;51.952;7.618;2023-10-08T09:39:15;5.07;;;1.23;;
3083;SDS011;1552;51.952;7.618;2023-10-08T09:41:48;2.60;;;1.60;;
3083;SDS011;1552;51.952;7.618;2023-10-08T09:44:15;4.93;;;1.77;;
3083;SDS011;1552;51.952;7.618;2023-10-08T09:46:42;3.03;;;1.83;;
3083;SDS011;1552;51.952;7.618;2023-10-08T09:49:12;4.38;;;1.65;;
3083;SDS011;1552;51.952;7.618;2023-10-08T09:51:39;1.47;;;1.10;;
3083;SDS011;1552;51.952;7.618;2023-10-08T09:54:09;3.73;;;1.20;;
3083;SDS011;1552;51.952;7.618;2023-10-08T09:56:40;2.95;;;1.38;;
3083;SDS011;1552;51.952;7.618;2023-10-08T09:59:08;6.07;;;2.03;;
3083;SDS011;1552;51.952;7.618;2023-10-08T10:01:35;3.75;;;1.35;;
3083;SDS011;1552;51.952;7.618;2023-10-08T10:04:05;3.45;;;1.48;;
3083;SDS011;1552;51.952;7.618;2023-10-08T10:06:31;2.75;;;1.23;;
3083;SDS011;1552;51.952;7.618;2023-10-08T10:08:57;4.47;;;1.20;;
3083;SDS011;1552;51.952;7.618;2023-10-08T10:11:26;1.80;;;1.42;;
3083;SDS011;1552;51.952;7.618;2023-10-08T10:13:57;2.70;;;1.00;;
3083;SDS011;1552;51.952;7.618;2023-10-08T10:16:25;2.90;;;1.00;;
3083;SDS011;1552;51.952;7.618;2023-10-08T10:18:54;2.05;;;1.08;;
3083;SDS011;1552;51.952;7.618;2023-10-08T10:21:26;3.35;;;1.40;;
3083;SDS011;1552;51.952;7.618;2023-10-08T10:23:53;1.80;;;1.00;;
3083;SDS011;1552;51.952;7.618;2023-10-08T10:26:24;5.28;;;1.75;;
3083;SDS011;1552;51.952;7.618;2023-10-08T10:31:41;4.47;;;1.65;;
3083;SDS011;1552;51.952;7.618;2023-10-08T10:34:10;4.05;;;1.30;;
3083;SDS011;1552;51.952;7.618;2023-10-08T10:36:37;2.50;;;1.63;;
3083;SDS011;1552;51.952;7.618;2023-10-08T10:39:04;4.20;;;1.75;;
3083;SDS011;1552;51.952;7.618;2023-10-08T10:41:41;4.55;;;2.15;;
3083;SDS011;1552;51.952;7.618;2023-10-08T10:44:08;4.10;;;2.05;;
3083;SDS011;1552;51.952;7.618;2023-10-08T10:46:34;3.63;;;2.20;;
3083;SDS011;1552;51.952;7.618;2023-10-08T10:49:06;3.53;;;1.80;;
3083;SDS011;1552;51.952;7.618;2023-10-08T10:51:41;11.35;;;2.35;;
3083;SDS011;1552;51.952;7.618;2023-10-08T10:54:08;3.17;;;2.05;;
3083;SDS011;1552;51.952;7.618;2023-10-08T10:56:35;3.83;;;2.10;;
3083;SDS011;1552;51.952;7.618;2023-10-08T10:59:07;9.68;;;3.38;;
3083;SDS011;1552;51.952;7.618;2023-10-08T11:01:44;4.55;;;2.42;;
3083;SDS011;1552;51.952;7.618;2023-10-08T11:04:13;8.68;;;3.67;;
3083;SDS011;1552;51.952;7.618;2023-10-08T11:06:44;9.88;;;3.97;;
3083;SDS011;1552;51.952;7.618;2023-10-08T11:09:11;6.55;;;2.92;;
3083;SDS011;1552;51.952;7.618;2023-10-08T11:11:41;7.72;;;2.45;;
3083;SDS011;1552;51.952;7.618;2023-10-08T11:14:11;9.70;;;2.75;;
3083;SDS011;1552;51.952;7.618;2023-10-08T11:16:41;5.78;;;3.03;;
3083;SDS011;1552;51.952;7.618;2023-10-08T11:19:08;6.45;;;3.38;;
3083;SDS011;1552;51.952;7.618;2023-10-08T11:21:48;6.13;;;3.40;;
3083;SDS011;1552;51.952;7.618;2023-10-08T11:24:26;6.25;;;3.47;;
3083;SDS011;1552;51.952;7.618;2023-10-08T11:26:52;7.45;;;3.58;;
3083;SDS011;1552;51.952;7.618;2023-10-08T11:29:31;5.97;;;3.13;;
3083;SDS011;1552;51.952;7.618;2023-10-08T11:31:57;6.32;;;2.83;;
3083;SDS011;1552;51.952;7.618;2023-10-08T11:34:31;5.18;;;2.92;;
3083;SDS011;1552;51.952;7.618;2023-10-08T11:37:03;5.93;;;2.90;;
3083;SDS011;1552;51.952;7.618;2023-10-08T11:39:38;3.88;;;2.05;;
3083;SDS011;1552;51.952;7.618;2023-10-08T11:42:10;5.15;;;2.47;;
3083;SDS011;1552;51.952;7.618;2023-10-08T11:45:02;10.73;;;2.90;;
3083;SDS011;1552;51.952;7.618;2023-10-08T11:47:43;4.03;;;2.53;;
3083;SDS011;1552;51.952;7.618;2023-10-08T11:50:10;4.47;;;2.58;;
3083;SDS011;1552;51.952;7.618;2023-10-08T11:52:38;5.07;;;2.60;;
3083;SDS011;1552;51.952;7.618;2023-10-08T11:55:07;5.78;;;2.60;;
3083;SDS011;1552;51.952;7.618;2023-10-08T11:57:34;3.97;;;2.60;;
3083;SDS011;1552;51.952;7.618;2023-10-08T12:00:00;4.38;;;1.50;;
3083;SDS011;1552;51.952;7.618;2023-10-08T12:02:43;4.28;;;2.72;;
3083;SDS011;1552;51.952;7.618;2023-10-08T12:05:10;2.42;;;1.80;;
3083;SDS011;1552;51.952;7.618;2023-10-08T12:07:45;5.43;;;2.03;;
3083;SDS011;1552;51.952;7.618;2023-10-08T12:10:11;2.92;;;1.38;;
3083;SDS011;1552;51.952;7.618;2023-10-08T12:12:38;2.70;;;1.70;;
3083;SDS011;1552;51.952;7.618;2023-10-08T12:15:05;2.65;;;1.85;;
3083;SDS011;1552;51.952;7.618;2023-10-08T12:17:34;3.60;;;1.50;;
3083;SDS011;1552;51.952;7.618;2023-10-08T12:20:05;5.97;;;1.60;;
3083;SDS011;1552;51.952;7.618;2023-10-08T12:22:49;2.60;;;1.92;;
3083;SDS011;1552;51.952;7.618;2023-10-08T12:25:15;2.05;;;1.60;;
3083;SDS011;1552;51.952;7.618;2023-10-08T12:27:41;4.93;;;2.13;;
3083;SDS011;1552;51.952;7.618;2023-10-08T12:30:08;2.92;;;1.85;;
3083;SDS011;1552;51.952;7.618;2023-10-08T12:32:35;3.50;;;1.60;;
3083;SDS011;1552;51.952;7.618;2023-10-08T12:35:02;3.72;;;2.13;;
3083;SDS011;1552;51.952;7.618;2023-10-08T12:37:29;14.38;;;2.40;;
3083;SDS011;1552;51.952;7.618;2023-10-08T12:39:57;4.20;;;2.13;;
3083;SDS011;1552;51.952;7.618;2023-10-08T12:42:36;3.47;;;1.60;;
3083;SDS011;1552;51.952;7.618;2023-10-08T12:45:04;2.13;;;1.35;;
3083;SDS011;1552;51.952;7.618;2023-10-08T12:47:37;3.65;;;1.73;;
3083;SDS011;1552;51.952;7.618;2023-10-08T12:50:03;6.95;;;0.80;;
3083;SDS011;1552;51.952;7.618;2023-10-08T12:52:32;2.55;;;0.88;;
3083;SDS011;1552;51.952;7.618;2023-10-08T12:55:01;1.42;;;1.08;;
3083;SDS011;1552;51.952;7.618;2023-10-08T12:57:29;5.55;;;1.60;;
3083;SDS011;1552;51.952;7.618;2023-10-08T12:59:58;3.08;;;1.25;;
3083;SDS011;1552;51.952;7.618;2023-10-08T13:02:24;1.45;;;1.13;;
3083;SDS011;1552;51.952;7.618;2023-10-08T13:04:53;4.03;;;1.35;;
3083;SDS011;1552;51.952;7.618;2023-10-08T13:07:20;5.35;;;1.00;;
3083;SDS011;1552;51.952;7.618;2023-10-08T13:09:47;2.15;;;1.20;;
3083;SDS011;1552;51.952;7.618;2023-10-08T13:12:14;2.80;;;1.15;;
3083;SDS011;1552;51.952;7.618;2023-10-08T13:14:41;1.55;;;0.68;;
3083;SDS011;1552;51.952;7.618;2023-10-08T13:17:09;2.33;;;1.00;;
3083;SDS011;1552;51.952;7.618;2023-10-08T13:19:36;3.38;;;1.20;;
3083;SDS011;1552;51.952;7.618;2023-10-08T13:22:03;6.93;;;1.40;;
3083;SDS011;1552;51.952;7.618;2023-10-08T13:24:31;4.78;;;1.13;;
3083;SDS011;1552;51.952;7.618;2023-10-08T13:26:58;1.67;;;0.70;;
3083;SDS011;1552;51.952;7.618;2023-10-08T13:29:26;3.50;;;1.65;;
3083;SDS011;1552;51.952;7.618;2023-10-08T13:31:57;4.10;;;1.27;;
3083;SDS011;1552;51.952;7.618;2023-10-08T13:34:24;2.35;;;1.23;;
3083;SDS011;1552;51.952;7.618;2023-10-08T13:36:51;1.58;;;0.70;;
3083;SDS011;1552;51.952;7.618;2023-10-08T13:39:18;2.38;;;1.10;;
3083;SDS011;1552;51.952;7.618;2023-10-08T13:41:44;2.20;;;1.17;;
3083;SDS011;1552;51.952;7.618;2023-10-08T13:44:13;1.95;;;1.05;;
3083;SDS011;1552;51.952;7.618;2023-10-08T13:46:40;3.20;;;1.45;;
3083;SDS011;1552;51.952;7.618;2023-10-08T13:49:13;0.85;;;0.60;;
3083;SDS011;1552;51.952;7.618;2023-10-08T13:51:41;1.48;;;0.80;;
3083;SDS011;1552;51.952;7.618;2023-10-08T13:54:09;2.40;;;0.98;;
3083;SDS011;1552;51.952;7.618;2023-10-08T13:56:36;0.60;;;0.60;;
3083;SDS011;1552;51.952;7.618;2023-10-08T13:59:03;5.47;;;1.35;;
3083;SDS011;1552;51.952;7.618;2023-10-08T14:01:36;2.63;;;1.02;;
3083;SDS011;1552;51.952;7.618;2023-10-08T14:04:07;1.58;;;0.88;;
3083;SDS011;1552;51.952;7.618;2023-10-08T14:06:34;2.45;;;0.80;;
3083;SDS011;1552;51.952;7.618;2023-10-08T14:09:01;1.65;;;1.00;;
3083;SDS011;1552;51.952;7.618;2023-10-08T14:11:32;1.23;;;0.80;;
3083;SDS011;1552;51.952;7.618;2023-10-08T14:13:59;1.17;;;0.85;;
3083;SDS011;1552;51.952;7.618;2023-10-08T14:16:32;2.60;;;1.10;;
3083;SDS011;1552;51.952;7.618;2023-10-08T14:18:59;3.45;;;1.42;;
3083;SDS011;1552;51.952;7.618;2023-10-08T14:21:31;9.35;;;1.65;;
3083;SDS011;1552;51.952;7.618;2023-10-08T14:24:02;2.97;;;1.40;;
3083;SDS011;1552;51.952;7.618;2023-10-08T14:26:28;1.67;;;0.85;;
3083;SDS011;1552;51.952;7.618;2023-10-08T14:29:01;5.25;;;1.33;;
3083;SDS011;1552;51.952;7.618;2023-10-08T14:31:32;1.23;;;0.90;;
3083;SDS011;1552;51.952;7.618;2023-10-08T14:34:03;1.20;;;1.10;;
3083;SDS011;1552;51.952;7.618;2023-10-08T14:36:45;2.22;;;1.10;;
3083;SDS011;1552;51.952;7.618;2023-10-08T14:39:29;3.95;;;1.00;;
3083;SDS011;1552;51.952;7.618;2023-10-08T14:42:10;0.95;;;0.75;;
3083;SDS011;1552;51.952;7.618;2023-10-08T14:44:56;4.80;;;2.40;;
3083;SDS011;1552;51.952;7.618;2023-10-08T14:47:22;8.43;;;2.28;;
3083;SDS011;1552;51.952;7.618;2023-10-08T14:49:48;2.90;;;1.75;;
3083;SDS011;1552;51.952;7.618;2023-10-08T14:52:16;2.35;;;1.00;;
3083;SDS011;1552;51.952;7.618;2023-10-08T14:54:42;2.83;;;1.65;;
3083;SDS011;1552;51.952;7.618;2023-10-08T14:57:09;5.60;;;1.98;;
3083;SDS011;1552;51.952;7.618;2023-10-08T14:59:37;3.67;;;1.40;;
3083;SDS011;1552;51.952;7.618;2023-10-08T15:02:04;3.17;;;1.92;;
3083;SDS011;1552;51.952;7.618;2023-10-08T15:04:32;2.42;;;1.23;;
3083;SDS011;1552;51.952;7.618;2023-10-08T15:07:00;2.47;;;1.48;;
3083;SDS011;1552;51.952;7.618;2023-10-08T15:09:28;3.05;;;1.40;;
3083;SDS011;1552;51.952;7.618;2023-10-08T15:11:55;2.88;;;1.98;;
3083;SDS011;1552;51.952;7.618;2023-10-08T15:14:23;3.88;;;1.63;;
3083;SDS011;1552;51.952;7.618;2023-10-08T15:16:49;2.45;;;1.50;;
3083;SDS011;1552;51.952;7.618;2023-10-08T15:19:18;8.63;;;2.15;;
3083;SDS011;1552;51.952;7.618;2023-10-08T15:21:44;2.35;;;1.33;;
3083;SDS011;1552;51.952;7.618;2023-10-08T15:24:15;1.25;;;1.00;;
3083;SDS011;1552;51.952;7.618;2023-10-08T15:26:43;3.50;;;1.00;;
3083;SDS011;1552;51.952;7.618;2023-10-08T15:29:09;1.23;;;0.73;;
3083;SDS011;1552;51.952;7.618;2023-10-08T15:31:38;3.28;;;1.58;;
3083;SDS011;1552;51.952;7.618;2023-10-08T15:34:05;3.63;;;2.15;;